Time;durP1;ratioP1;P1;durP2;ratioP2;P2;SDS_P1;SDS_P2;PMS_P1;PMS_P2;Temp;Humidity;BMP_temperature;BMP_pressure;BME280_temperature;BME280_humidity;BME280_pressure;Samples;Min_cycle;Max_cycle;Signal;HPM_P1;HPM_P2
2023/07/09 00:03:06;;;;;;;1.08;0.57;;;;;;;27.83;100.00;101711.13;10429622;28;20506;-80
2023/07/09 00:08:25;;;;;;;0.30;0.30;;;;;;;27.96;100.00;101706.28;10448113;28;20049;-80
2023/07/09 00:13:27;;;;;;;0.57;0.27;;;;;;;28.26;100.00;101704.38;10448654;28;20060;-80
2023/07/09 00:18:29;;;;;;;0.15;0.13;;;;;;;28.07;100.00;101714.75;10452166;28;20053;-80
2023/07/09 00:23:30;;;;;;;0.28;0.20;;;;;;;27.94;100.00;101713.41;10434218;28;20051;-80
2023/07/09 00:28:32;;;;;;;0.17;0.10;;;;;;;28.07;100.00;101712.09;10436005;28;20060;-80
2023/07/09 00:33:35;;;;;;;0.20;0.10;;;;;;;28.13;100.00;101703.94;10433217;28;20118;-80
2023/07/09 00:38:38;;;;;;;0.15;0.15;;;;;;;27.66;100.00;101709.06;10416682;28;20490;-80
2023/07/09 00:43:40;;;;;;;0.05;0.05;;;;;;;28.21;100.00;101718.69;10449269;28;20076;-80
2023/07/09 00:48:44;;;;;;;0.30;0.10;;;;;;;27.91;100.00;101709.09;10450255;28;20083;-79
2023/07/09 00:53:51;;;;;;;0.60;0.22;;;;;;;28.25;100.00;101707.09;10425069;28;20041;-80
2023/07/09 00:58:55;;;;;;;0.40;0.17;;;;;;;28.25;100.00;101704.44;10433846;28;20056;-80
2023/07/09 01:03:59;;;;;;;0.30;0.10;;;;;;;27.35;100.00;101715.31;10460236;28;20044;-80
2023/07/09 01:09:03;;;;;;;0.13;0.13;;;;;;;28.00;100.00;101711.41;10452053;28;20107;-80
2023/07/09 01:14:09;;;;;;;0.10;0.10;;;;;;;27.68;100.00;101712.50;10454558;28;20029;-79
2023/07/09 01:19:13;;;;;;;0.15;0.15;;;;;;;27.78;100.00;101718.34;10441063;28;20041;-80
2023/07/09 01:24:47;;;;;;;0.57;0.10;;;;;;;27.55;100.00;101723.50;10469792;28;20384;-80
2023/07/09 01:29:49;;;;;;;0.20;0.10;;;;;;;27.62;100.00;101718.00;10457682;28;20139;-80
2023/07/09 01:34:54;;;;;;;0.17;0.10;;;;;;;26.92;100.00;101723.66;10464513;28;20123;-80
2023/07/09 01:39:56;;;;;;;0.20;0.20;;;;;;;26.22;100.00;101724.72;10448326;28;20059;-80
2023/07/09 01:44:57;;;;;;;0.20;0.20;;;;;;;26.23;100.00;101718.53;10439764;28;20041;-80
2023/07/09 01:49:59;;;;;;;0.57;0.55;;;;;;;26.51;100.00;101723.06;10422112;28;20139;-80
2023/07/09 01:55:03;;;;;;;0.63;0.13;;;;;;;26.48;100.00;101715.19;10451177;28;20037;-80
2023/07/09 02:00:13;;;;;;;1.13;0.30;;;;;;;26.63;100.00;101720.97;10476540;28;20052;-80
2023/07/09 02:05:18;;;;;;;1.00;0.50;;;;;;;26.67;100.00;101714.69;10457293;28;20106;-80
2023/07/09 02:10:20;;;;;;;0.30;0.10;;;;;;;26.47;100.00;101726.72;10440809;28;21025;-80
2023/07/09 02:15:21;;;;;;;0.10;0.10;;;;;;;27.10;100.00;101718.72;10464872;28;20037;-80
2023/07/09 02:20:26;;;;;;;1.08;0.55;;;;;;;27.23;100.00;101714.78;10462564;28;20037;-80
2023/07/09 02:25:27;;;;;;;0.17;0.10;;;;;;;26.91;100.00;101721.94;10455635;28;20037;-80
2023/07/09 02:30:30;;;;;;;0.03;0.00;;;;;;;26.91;100.00;101724.59;10455155;28;20049;-80
2023/07/09 02:35:31;;;;;;;0.00;0.00;;;;;;;26.83;100.00;101726.59;10440987;28;20067;-80
2023/07/09 02:40:34;;;;;;;0.00;0.00;;;;;;;26.89;100.00;101726.41;10449114;28;20545;-80
2023/07/09 02:45:36;;;;;;;0.00;0.00;;;;;;;26.87;100.00;101725.56;10456778;28;20063;-79
2023/07/09 02:50:38;;;;;;;0.60;0.45;;;;;;;26.71;100.00;101729.53;10423211;28;20446;-79
2023/07/09 02:55:40;;;;;;;0.45;0.32;;;;;;;26.76;100.00;101738.25;10440225;28;20446;-79
2023/07/09 03:00:41;;;;;;;0.13;0.10;;;;;;;26.61;100.00;101742.16;10456915;28;20045;-80
2023/07/09 03:05:47;;;;;;;0.13;0.13;;;;;;;25.83;100.00;101750.34;10453547;28;20132;-80
2023/07/09 03:10:48;;;;;;;0.68;0.52;;;;;;;25.93;100.00;101747.44;10472397;28;20047;-80
2023/07/09 03:15:57;;;;;;;0.77;0.20;;;;;;;26.26;100.00;101749.28;10444790;28;20068;-80
2023/07/09 03:21:00;;;;;;;0.93;0.57;;;;;;;26.75;100.00;101757.63;10455222;28;20127;-79
2023/07/09 03:26:02;;;;;;;0.15;0.15;;;;;;;26.50;100.00;101755.66;10421647;28;20095;-79
2023/07/09 03:31:05;;;;;;;0.25;0.25;;;;;;;26.23;100.00;101759.91;10454485;28;20049;-79
2023/07/09 03:36:07;;;;;;;0.30;0.10;;;;;;;26.75;100.00;101755.88;10432795;28;20486;-79
2023/07/09 03:41:08;;;;;;;0.43;0.40;;;;;;;25.84;100.00;101752.94;10441710;28;20048;-79
2023/07/09 03:46:11;;;;;;;0.10;0.10;;;;;;;26.10;100.00;101759.41;10470519;28;20055;-80
2023/07/09 03:51:13;;;;;;;0.45;0.17;;;;;;;26.36;100.00;101750.75;10432245;28;20613;-79
2023/07/09 03:56:14;;;;;;;0.73;0.32;;;;;;;26.86;100.00;101755.56;10436228;28;20133;-79
2023/07/09 04:01:16;;;;;;;0.10;0.10;;;;;;;26.93;100.00;101756.25;10436566;28;20033;-79
2023/07/09 04:06:19;;;;;;;0.00;0.00;;;;;;;26.69;100.00;101760.44;10454057;28;20077;-79
2023/07/09 04:11:21;;;;;;;1.65;0.50;;;;;;;25.97;100.00;101758.78;10472939;28;20045;-79
2023/07/09 04:16:22;;;;;;;0.20;0.20;;;;;;;27.04;100.00;101753.28;10455646;28;20509;-80
2023/07/09 04:21:24;;;;;;;0.00;0.00;;;;;;;27.28;100.00;101764.06;10437006;28;20048;-80
2023/07/09 04:26:27;;;;;;;0.03;0.03;;;;;;;26.83;100.00;101763.59;10469951;28;20136;-80
2023/07/09 04:31:29;;;;;;;1.08;0.43;;;;;;;27.46;100.00;101760.84;10463631;28;20161;-79
2023/07/09 04:36:31;;;;;;;0.10;0.10;;;;;;;27.18;100.00;101761.69;10437792;28;20053;-79
2023/07/09 04:41:33;;;;;;;1.45;0.85;;;;;;;27.55;100.00;101754.41;10448793;28;20041;-79
2023/07/09 04:46:34;;;;;;;0.28;0.28;;;;;;;27.59;100.00;101757.81;10438211;28;20051;-80
2023/07/09 04:51:36;;;;;;;0.20;0.20;;;;;;;27.77;100.00;101770.44;10482520;28;20047;-80
2023/07/09 04:56:38;;;;;;;8.25;2.10;;;;;;;27.66;100.00;101777.88;10451323;28;20043;-80
2023/07/09 05:01:40;;;;;;;0.55;0.40;;;;;;;28.28;100.00;101765.25;10482533;28;20049;-80
2023/07/09 05:06:42;;;;;;;1.45;0.60;;;;;;;27.57;100.00;101768.44;10449390;28;20036;-81
2023/07/09 05:11:43;;;;;;;1.50;1.08;;;;;;;27.67;100.00;101767.25;10449219;28;20037;-81
2023/07/09 05:16:45;;;;;;;2.50;1.33;;;;;;;28.40;100.00;101764.81;10468013;28;20048;-80
2023/07/09 05:21:47;;;;;;;0.88;0.45;;;;;;;28.64;100.00;101767.47;10475820;28;20041;-80
2023/07/09 05:26:48;;;;;;;2.03;0.75;;;;;;;28.71;100.00;101762.88;10452389;28;20044;-80
2023/07/09 05:31:50;;;;;;;0.45;0.40;;;;;;;28.95;100.00;101769.03;10465220;28;20041;-80
2023/07/09 05:36:52;;;;;;;0.77;0.65;;;;;;;29.32;100.00;101775.59;10448945;28;20046;-80
2023/07/09 05:41:54;;;;;;;1.02;0.35;;;;;;;29.88;100.00;101768.06;10478237;28;20462;-80
2023/07/09 05:46:56;;;;;;;0.32;0.30;;;;;;;29.87;100.00;101771.63;10448624;28;20095;-81
2023/07/09 05:51:58;;;;;;;0.20;0.20;;;;;;;29.04;100.00;101789.91;10467763;28;20530;-81
2023/07/09 05:56:59;;;;;;;0.22;0.22;;;;;;;29.55;100.00;101776.47;10433360;28;20103;-81
2023/07/09 06:02:02;;;;;;;2.08;0.85;;;;;;;29.91;100.00;101773.25;10478477;28;20530;-82
2023/07/09 06:07:04;;;;;;;0.40;0.30;;;;;;;30.04;100.00;101774.47;10442497;28;20060;-81
2023/07/09 06:12:06;;;;;;;0.20;0.20;;;;;;;30.33;100.00;101785.63;10440927;28;20415;-81
2023/07/09 06:17:08;;;;;;;0.85;0.50;;;;;;;30.32;100.00;101783.91;10466807;28;20041;-81
2023/07/09 06:22:10;;;;;;;2.65;0.68;;;;;;;31.05;100.00;101787.78;10457607;28;20051;-81
2023/07/09 06:27:11;;;;;;;0.63;0.63;;;;;;;30.37;100.00;101783.72;10439863;28;20111;-81
2023/07/09 06:32:13;;;;;;;0.57;0.55;;;;;;;30.26;100.00;101788.63;10447097;28;20041;-82
2023/07/09 06:37:14;;;;;;;1.40;0.82;;;;;;;30.81;100.00;101790.63;10476377;28;20048;-81
2023/07/09 06:42:16;;;;;;;0.60;0.55;;;;;;;30.72;100.00;101799.91;10457080;28;20730;-82
2023/07/09 06:47:34;;;;;;;5.70;1.67;;;;;;;31.30;100.00;101804.38;10461236;28;20056;-82
2023/07/09 06:52:36;;;;;;;0.88;0.70;;;;;;;30.92;100.00;101809.66;10442372;28;20049;-82
2023/07/09 06:57:38;;;;;;;0.85;0.52;;;;;;;31.51;100.00;101801.59;10459856;28;20498;-82
2023/07/09 07:02:39;;;;;;;2.22;1.05;;;;;;;32.03;100.00;101798.16;10472509;28;20044;-82
2023/07/09 07:07:41;;;;;;;0.77;0.45;;;;;;;33.41;100.00;101806.88;10445642;28;20175;-82
2023/07/09 07:12:45;;;;;;;1.52;0.60;;;;;;;33.26;100.00;101815.72;10435850;28;20045;-82
2023/07/09 07:17:48;;;;;;;0.73;0.50;;;;;;;34.15;100.00;101813.31;10464129;28;20394;-81
2023/07/09 07:22:49;;;;;;;0.88;0.50;;;;;;;34.75;100.00;101811.47;10455292;28;20041;-82
2023/07/09 07:27:51;;;;;;;0.77;0.30;;;;;;;33.98;100.00;101808.13;10442168;28;20045;-82
2023/07/09 07:32:53;;;;;;;1.85;0.75;;;;;;;34.58;100.00;101811.69;10425672;28;20094;-82
2023/07/09 07:37:54;;;;;;;0.75;0.75;;;;;;;35.16;100.00;101800.94;10466812;28;20040;-82
2023/07/09 07:42:56;;;;;;;0.55;0.40;;;;;;;35.85;100.00;101788.34;10436867;28;20048;-82
2023/07/09 07:47:57;;;;;;;0.63;0.63;;;;;;;36.14;100.00;101795.41;10441533;28;20049;-82
2023/07/09 07:52:59;;;;;;;1.75;0.70;;;;;;;35.93;100.00;101795.88;10460427;28;20036;-82
2023/07/09 07:58:03;;;;;;;0.73;0.43;;;;;;;36.54;100.00;101795.31;10442121;28;20092;-82
2023/07/09 08:03:05;;;;;;;2.47;1.02;;;;;;;36.86;100.00;101800.19;10437109;28;20051;-83
2023/07/09 08:08:07;;;;;;;0.75;0.45;;;;;;;37.77;100.00;101795.38;10442704;28;20052;-82
2023/07/09 08:13:14;;;;;;;0.68;0.30;;;;;;;37.11;100.00;101798.44;10458443;28;20041;-82
2023/07/09 08:18:16;;;;;;;0.60;0.35;;;;;;;36.09;100.00;101785.00;10454884;28;20381;-82
2023/07/09 08:23:18;;;;;;;1.70;0.68;;;;;;;36.83;100.00;101786.97;10454721;28;20048;-82
2023/07/09 08:28:19;;;;;;;0.73;0.63;;;;;;;36.48;100.00;101785.00;10466867;28;20044;-82
2023/07/09 08:33:22;;;;;;;0.70;0.50;;;;;;;37.60;100.00;101784.06;10437923;28;20052;-82
2023/07/09 08:38:23;;;;;;;1.08;0.60;;;;;;;37.52;98.83;101781.09;10438998;28;20056;-82
2023/07/09 08:43:50;;;;;;;1.25;0.85;;;;;;;38.40;100.00;101782.44;10452855;28;20049;-82
2023/07/09 08:48:54;;;;;;;0.30;0.30;;;;;;;39.17;100.00;101775.38;10462320;28;20049;-82
2023/07/09 08:54:00;;;;;;;0.45;0.40;;;;;;;39.24;100.00;101780.28;10440471;28;20500;-82
2023/07/09 08:59:03;;;;;;;1.10;0.68;;;;;;;39.21;100.00;101780.53;10436520;28;20041;-82
2023/07/09 09:04:09;;;;;;;0.35;0.30;;;;;;;38.47;100.00;101782.81;10453875;28;20380;-83
2023/07/09 09:09:41;;;;;;;0.85;0.68;;;;;;;39.62;100.00;101776.22;10410810;28;20041;-87
2023/07/09 09:14:48;;;;;;;1.55;0.88;;;;;;;39.30;100.00;101774.38;10413188;28;20041;-88
2023/07/09 09:19:54;;;;;;;1.48;1.13;;;;;;;39.09;93.43;101772.47;10423700;28;20056;-83
2023/07/09 09:25:18;;;;;;;1.45;0.75;;;;;;;39.82;100.00;101774.56;10432779;28;20045;-83
2023/07/09 09:30:25;;;;;;;0.32;0.32;;;;;;;40.04;97.47;101773.53;10446860;28;20737;-84
2023/07/09 09:35:35;;;;;;;0.65;0.65;;;;;;;40.61;96.07;101754.25;10451813;28;20494;-84
2023/07/09 09:40:37;;;;;;;0.20;0.20;;;;;;;39.81;97.86;101752.09;10447869;28;20049;-84
2023/07/09 09:45:40;;;;;;;0.98;0.77;;;;;;;40.48;92.49;101753.56;10439993;28;20037;-84
2023/07/09 09:50:42;;;;;;;0.10;0.10;;;;;;;40.65;94.58;101755.66;10440344;28;20487;-84
2023/07/09 09:55:45;;;;;;;0.20;0.20;;;;;;;40.00;90.71;101745.13;10451140;28;20518;-84
2023/07/09 10:00:52;;;;;;;1.35;0.50;;;;;;;40.51;87.18;101747.91;10477168;28;20487;-84
2023/07/09 10:05:58;;;;;;;2.10;0.50;;;;;;;40.45;91.76;101749.31;10439752;28;20044;-84
2023/07/09 10:11:32;;;;;;;0.65;0.60;;;;;;;40.13;86.10;101745.78;10457716;28;20338;-84
2023/07/09 10:16:43;;;;;;;0.40;0.40;;;;;;;40.64;94.55;101753.94;10465473;28;20044;-84
2023/07/09 10:22:00;;;;;;;0.68;0.57;;;;;;;40.19;90.68;101747.09;10472937;28;20037;-84
2023/07/09 10:27:29;;;;;;;4.95;0.95;;;;;;;40.80;86.32;101748.03;10451206;28;20045;-84
2023/07/09 10:33:02;;;;;;;1.27;0.77;;;;;;;40.85;84.30;101739.47;10469651;28;20045;-83
2023/07/09 10:38:16;;;;;;;0.85;0.75;;;;;;;40.86;89.57;101730.38;10438557;28;20836;-84
2023/07/09 10:43:43;;;;;;;1.05;0.50;;;;;;;41.56;86.95;101727.59;10456310;28;20052;-86
2023/07/09 10:48:48;;;;;;;0.50;0.43;;;;;;;41.27;85.23;101736.56;10453439;28;20053;-83
2023/07/09 10:53:57;;;;;;;0.93;0.50;;;;;;;41.06;82.17;101736.72;10455621;28;20040;-82
2023/07/09 10:59:21;;;;;;;1.55;0.98;;;;;;;41.66;86.11;101714.94;10435009;28;20052;-82
2023/07/09 11:04:55;;;;;;;0.68;0.55;;;;;;;41.48;78.07;101703.13;10437208;28;20441;-82
2023/07/09 11:09:59;;;;;;;0.20;0.20;;;;;;;40.65;77.98;101707.06;10444447;28;20533;-83
2023/07/09 11:15:08;;;;;;;0.65;0.50;;;;;;;41.31;76.44;101702.84;10453123;28;20047;-82
2023/07/09 11:20:20;;;;;;;0.32;0.20;;;;;;;41.98;77.69;101694.75;10439259;28;20056;-81
2023/07/09 11:25:42;;;;;;;3.05;1.23;;;;;;;41.94;77.39;101698.78;10439726;28;20040;-82
2023/07/09 11:30:53;;;;;;;3.88;0.77;;;;;;;40.87;75.60;101694.28;10452755;28;20589;-82
2023/07/09 11:36:08;;;;;;;0.75;0.47;;;;;;;41.91;78.86;101688.25;10435545;28;20056;-82
2023/07/09 11:41:39;;;;;;;0.20;0.20;;;;;;;41.57;81.51;101685.19;10454918;28;20041;-82
2023/07/09 11:47:12;;;;;;;0.43;0.43;;;;;;;41.52;73.25;101672.97;10453766;28;20523;-82
2023/07/09 11:52:21;;;;;;;0.80;0.38;;;;;;;39.45;71.80;101664.44;10414997;28;20110;-83
2023/07/09 11:57:23;;;;;;;0.50;0.47;;;;;;;40.14;70.63;101662.97;10437248;28;20049;-83
2023/07/09 12:02:32;;;;;;;0.40;0.13;;;;;;;40.52;75.27;101679.44;10456239;28;20080;-83
2023/07/09 12:07:34;;;;;;;0.10;0.10;;;;;;;41.11;80.91;101688.47;10467323;28;20044;-84
2023/07/09 12:12:42;;;;;;;1.15;0.52;;;;;;;39.66;76.77;101688.66;10419745;28;20049;-83
2023/07/09 12:17:53;;;;;;;0.22;0.22;;;;;;;40.78;77.87;101690.59;10467764;28;20045;-82
2023/07/09 12:22:55;;;;;;;1.00;0.30;;;;;;;39.97;77.50;101686.91;10419568;28;20072;-81
2023/07/09 12:27:58;;;;;;;0.10;0.10;;;;;;;39.64;75.30;101685.28;10449760;28;20044;-81
2023/07/09 12:33:00;;;;;;;0.10;0.10;;;;;;;39.40;73.76;101681.00;10437101;28;20100;-82
2023/07/09 12:38:02;;;;;;;0.00;0.00;;;;;;;41.18;73.62;101664.44;10436157;28;20095;-81
2023/07/09 12:43:04;;;;;;;0.08;0.08;;;;;;;40.75;73.38;101659.31;10438714;28;20128;-81
2023/07/09 12:48:07;;;;;;;0.20;0.20;;;;;;;39.57;78.55;101652.56;10464159;28;20102;-81
2023/07/09 12:53:14;;;;;;;0.10;0.10;;;;;;;39.35;74.03;101653.59;10432925;28;20037;-81
2023/07/09 12:58:20;;;;;;;;;;;;;;;39.46;78.58;101644.59;10435581;28;20124;-82
2023/07/09 13:03:28;;;;;;;1.33;0.50;;;;;;;40.15;75.36;101635.00;10466994;28;19921;-81
2023/07/09 13:08:41;;;;;;;0.63;0.20;;;;;;;39.54;75.91;101614.25;10437225;28;20048;-81
2023/07/09 13:13:58;;;;;;;0.25;0.17;;;;;;;39.67;82.47;101609.47;10443138;28;20045;-81
2023/07/09 13:19:00;;;;;;;0.10;0.10;;;;;;;39.42;80.69;101598.16;10473564;28;20041;-81
2023/07/09 13:24:12;;;;;;;0.10;0.10;;;;;;;38.77;86.15;101595.53;10443177;28;20048;-81
2023/07/09 13:29:17;;;;;;;0.35;0.28;;;;;;;38.69;81.85;101600.69;10446607;28;20068;-81
2023/07/09 13:34:24;;;;;;;0.30;0.20;;;;;;;38.82;81.90;101603.22;10436813;28;20049;-81
2023/07/09 13:39:26;;;;;;;0.63;0.50;;;;;;;38.84;80.77;101602.13;10429270;28;20087;-80
2023/07/09 13:44:33;;;;;;;0.38;0.38;;;;;;;39.44;86.65;101593.47;10450511;28;20041;-81
2023/07/09 13:49:34;;;;;;;0.08;0.00;;;;;;;38.70;85.53;101578.16;10455167;28;20044;-81
2023/07/09 13:54:37;;;;;;;0.10;0.00;;;;;;;40.19;93.45;101568.09;10452313;28;20064;-81
2023/07/09 13:59:39;;;;;;;0.52;0.20;;;;;;;38.59;84.74;101556.69;10472745;28;20049;-81
2023/07/09 14:04:41;;;;;;;1.77;1.05;;;;;;;38.17;88.27;101560.06;10440079;28;20040;-81
2023/07/09 14:09:42;;;;;;;0.15;0.15;;;;;;;38.40;90.61;101555.50;10457496;28;20052;-80
2023/07/09 14:14:45;;;;;;;0.47;0.20;;;;;;;38.89;92.04;101555.94;10454724;28;20044;-80
2023/07/09 14:19:47;;;;;;;0.63;0.40;;;;;;;37.96;97.49;101562.66;10453994;28;20041;-80
2023/07/09 14:24:48;;;;;;;2.72;0.52;;;;;;;38.22;98.50;101572.19;10439085;28;20041;-80
2023/07/09 14:29:50;;;;;;;0.10;0.10;;;;;;;37.70;92.56;101569.13;10456154;28;20049;-81
2023/07/09 14:34:51;;;;;;;0.08;0.08;;;;;;;38.67;92.65;101554.19;10457324;28;20365;-80
2023/07/09 14:39:53;;;;;;;0.00;0.00;;;;;;;38.94;92.94;101547.47;10437190;28;20056;-80
2023/07/09 14:44:55;;;;;;;0.00;0.00;;;;;;;38.50;93.95;101540.31;10435769;28;20121;-80
2023/07/09 14:49:56;;;;;;;0.55;0.35;;;;;;;37.36;96.91;101525.22;10453270;28;20048;-80
2023/07/09 14:54:58;;;;;;;0.13;0.13;;;;;;;37.06;96.57;101542.75;10456549;28;20049;-80
2023/07/09 15:00:00;;;;;;;0.13;0.13;;;;;;;36.25;97.90;101575.53;10457906;28;20041;-80
2023/07/09 15:05:03;;;;;;;0.22;0.22;;;;;;;35.11;100.00;101620.00;10437774;28;20043;-80
2023/07/09 15:10:07;;;;;;;0.65;0.32;;;;;;;34.03;100.00;101616.22;10445771;28;20049;-83
2023/07/09 15:15:11;;;;;;;0.35;0.28;;;;;;;33.33;100.00;101544.78;10437118;28;20048;-83
2023/07/09 15:20:22;;;;;;;0.30;0.30;;;;;;;33.19;100.00;101610.50;10452048;28;20056;-83
2023/07/09 15:25:27;;;;;;;0.85;0.77;;;;;;;32.73;100.00;101738.53;10436639;28;20029;-80
2023/07/09 15:30:30;;;;;;;0.55;0.43;;;;;;;31.56;100.00;101783.59;10447863;28;20597;-80
2023/07/09 15:35:35;;;;;;;1.25;0.75;;;;;;;30.27;100.00;101791.19;10450296;28;20044;-82
2023/07/09 15:40:36;;;;;;;1.33;0.43;;;;;;;29.54;100.00;101844.66;10468322;28;20044;-83
2023/07/09 15:45:44;;;;;;;0.65;0.35;;;;;;;29.16;100.00;101864.63;10469484;28;20044;-83
2023/07/09 15:50:46;;;;;;;0.47;0.45;;;;;;;29.00;100.00;101865.22;10442777;28;20495;-81
2023/07/09 15:55:48;;;;;;;0.30;0.17;;;;;;;29.17;100.00;101847.81;10452566;28;20123;-83
2023/07/09 16:00:50;;;;;;;1.13;0.38;;;;;;;28.91;100.00;101870.88;10456601;28;20049;-81
2023/07/09 16:05:52;;;;;;;1.05;0.50;;;;;;;28.59;100.00;101865.75;10452460;28;20477;-82
2023/07/09 16:10:54;;;;;;;0.00;0.00;;;;;;;29.18;100.00;101861.03;10437689;28;20045;-81
2023/07/09 16:15:55;;;;;;;0.40;0.40;;;;;;;28.64;100.00;101820.50;10434484;28;20041;-81
2023/07/09 16:21:01;;;;;;;0.50;0.28;;;;;;;28.70;100.00;101793.84;10459013;28;20575;-82
2023/07/09 16:26:02;;;;;;;0.65;0.35;;;;;;;30.16;100.00;101777.53;10448467;28;20037;-81
2023/07/09 16:31:04;;;;;;;0.30;0.30;;;;;;;29.49;100.00;101755.47;10438682;28;20044;-81
2023/07/09 16:36:12;;;;;;;0.30;0.30;;;;;;;30.29;100.00;101783.19;10437286;28;20037;-80
2023/07/09 16:41:14;;;;;;;1.33;0.75;;;;;;;30.45;100.00;101794.00;10432591;28;20099;-80
2023/07/09 16:46:23;;;;;;;0.63;0.40;;;;;;;30.01;100.00;101797.66;10449816;28;20048;-80
2023/07/09 16:51:26;;;;;;;1.20;0.65;;;;;;;28.74;100.00;101824.59;10433598;28;20583;-79
2023/07/09 16:56:28;;;;;;;0.82;0.80;;;;;;;29.11;100.00;101836.50;10431898;28;20551;-79
2023/07/09 17:01:29;;;;;;;0.93;0.65;;;;;;;30.07;100.00;101840.75;10410979;28;20049;-80
2023/07/09 17:06:31;;;;;;;0.85;0.50;;;;;;;30.14;100.00;101848.47;10443436;28;20044;-80
2023/07/09 17:11:33;;;;;;;0.40;0.25;;;;;;;29.94;100.00;101828.91;10451240;28;20415;-80
2023/07/09 17:16:35;;;;;;;1.02;0.57;;;;;;;30.55;100.00;101816.63;10445802;28;20041;-80
2023/07/09 17:21:37;;;;;;;0.73;0.55;;;;;;;31.74;100.00;101813.81;10465515;28;20048;-80
2023/07/09 17:26:38;;;;;;;0.13;0.10;;;;;;;30.97;100.00;101818.28;10448345;28;20045;-80
2023/07/09 17:31:40;;;;;;;0.10;0.10;;;;;;;32.16;100.00;101814.38;10465460;28;20059;-80
2023/07/09 17:36:42;;;;;;;0.13;0.10;;;;;;;31.79;100.00;101824.25;10428572;28;20045;-80
2023/07/09 17:41:44;;;;;;;0.43;0.35;;;;;;;30.50;100.00;101816.81;10453729;28;20056;-80
2023/07/09 17:46:48;;;;;;;0.75;0.30;;;;;;;30.65;100.00;101825.06;10454985;28;20044;-78
2023/07/09 17:51:51;;;;;;;0.10;0.10;;;;;;;30.42;100.00;101815.41;10444780;28;20083;-79
2023/07/09 17:56:55;;;;;;;0.13;0.13;;;;;;;30.92;100.00;101811.44;10454142;28;20483;-78
2023/07/09 18:02:21;;;;;;;1.00;0.63;;;;;;;29.99;100.00;101802.16;10457184;28;20128;-78
2023/07/09 18:07:25;;;;;;;0.20;0.20;;;;;;;30.64;100.00;101794.91;10438487;28;20048;-78
2023/07/09 18:12:28;;;;;;;0.00;0.00;;;;;;;30.91;100.00;101783.97;10445308;28;20048;-79
2023/07/09 18:17:33;;;;;;;0.00;0.00;;;;;;;31.24;100.00;101790.47;10456223;28;20404;-78
2023/07/09 18:22:35;;;;;;;0.30;0.15;;;;;;;30.88;100.00;101797.41;10457380;28;20136;-79
2023/07/09 18:27:43;;;;;;;1.17;0.17;;;;;;;30.99;100.00;101786.25;10456299;28;20053;-78
2023/07/09 18:32:46;;;;;;;0.13;0.13;;;;;;;29.90;100.00;101766.16;10478432;28;20045;-79
2023/07/09 18:37:51;;;;;;;2.17;0.43;;;;;;;30.39;100.00;101777.41;10465320;28;20049;-80
2023/07/09 18:42:52;;;;;;;0.30;0.10;;;;;;;30.63;100.00;101793.22;10442059;28;20041;-79
2023/07/09 18:47:54;;;;;;;0.15;0.15;;;;;;;30.15;100.00;101791.75;10457852;28;20052;-79
2023/07/09 18:52:58;;;;;;;0.40;0.17;;;;;;;30.33;100.00;101801.59;10457506;28;20048;-79
2023/07/09 18:57:59;;;;;;;0.10;0.10;;;;;;;29.93;100.00;101803.28;10442550;28;20052;-79
2023/07/09 19:03:01;;;;;;;0.00;0.00;;;;;;;29.65;100.00;101817.66;10454750;28;20040;-78
2023/07/09 19:08:17;;;;;;;0.10;0.10;;;;;;;30.33;100.00;101806.91;10438528;28;20049;-79
2023/07/09 19:13:21;;;;;;;0.15;0.15;;;;;;;30.81;100.00;101817.25;10470105;28;20775;-79
2023/07/09 19:18:26;;;;;;;0.10;0.10;;;;;;;30.05;100.00;101808.06;10437169;28;20043;-79
2023/07/09 19:23:28;;;;;;;0.00;0.00;;;;;;;29.72;100.00;101811.19;10431432;28;20510;-79
2023/07/09 19:28:29;;;;;;;0.00;0.00;;;;;;;29.66;100.00;101811.44;10451914;28;20041;-79
2023/07/09 19:33:36;;;;;;;0.30;0.17;;;;;;;29.41;100.00;101828.31;10435256;28;20049;-79
2023/07/09 19:38:38;;;;;;;0.40;0.17;;;;;;;29.42;100.00;101830.06;10456944;28;20106;-79
2023/07/09 19:43:40;;;;;;;0.00;0.00;;;;;;;29.02;100.00;101836.84;10475149;28;20053;-79
2023/07/09 19:48:41;;;;;;;0.10;0.00;;;;;;;28.76;100.00;101820.13;10436244;28;20056;-79
2023/07/09 19:53:43;;;;;;;0.52;0.32;;;;;;;28.82;100.00;101824.31;10434270;28;20048;-79
2023/07/09 19:58:44;;;;;;;0.00;0.00;;;;;;;28.93;100.00;101845.16;10452919;28;20032;-79
2023/07/09 20:03:46;;;;;;;0.40;0.17;;;;;;;28.62;100.00;101843.56;10452063;28;20515;-79
2023/07/09 20:08:48;;;;;;;0.20;0.17;;;;;;;29.01;100.00;101853.69;10462588;28;20053;-80
2023/07/09 20:13:49;;;;;;;2.33;0.30;;;;;;;28.59;100.00;101855.16;10453052;28;20087;-79
2023/07/09 20:18:53;;;;;;;0.32;0.20;;;;;;;27.95;100.00;101853.72;10434297;28;20053;-79
2023/07/09 20:23:55;;;;;;;0.00;0.00;;;;;;;28.23;100.00;101855.47;10452412;28;20036;-79
2023/07/09 20:28:57;;;;;;;0.65;0.22;;;;;;;28.40;100.00;101865.53;10436610;28;20064;-79
2023/07/09 20:34:09;;;;;;;0.00;0.00;;;;;;;27.78;100.00;101872.78;10454937;28;20642;-79
2023/07/09 20:39:16;;;;;;;0.47;0.30;;;;;;;27.47;100.00;101872.88;10433395;28;20052;-80
2023/07/09 20:44:25;;;;;;;0.00;0.00;;;;;;;27.82;100.00;101879.72;10457477;28;20491;-80
2023/07/09 20:49:35;;;;;;;0.10;0.10;;;;;;;27.67;100.00;101875.78;10454638;28;20410;-80
2023/07/09 20:54:38;;;;;;;0.08;0.03;;;;;;;27.81;100.00;101872.69;10433764;28;20033;-80
2023/07/09 20:59:40;;;;;;;0.08;0.08;;;;;;;28.22;100.00;101871.44;10437884;28;20055;-80
2023/07/09 21:04:41;;;;;;;0.10;0.10;;;;;;;27.96;100.00;101871.34;10432117;28;20049;-80
2023/07/09 21:09:43;;;;;;;0.05;0.00;;;;;;;28.16;100.00;101875.16;10465954;28;20045;-79
2023/07/09 21:14:45;;;;;;;0.00;0.00;;;;;;;28.02;100.00;101870.28;10450546;28;20813;-79
2023/07/09 21:19:47;;;;;;;0.60;0.20;;;;;;;27.58;100.00;101876.03;10463545;28;20056;-81
2023/07/09 21:24:50;;;;;;;0.10;0.10;;;;;;;28.26;100.00;101888.97;10446139;28;20043;-78
2023/07/09 21:29:52;;;;;;;0.75;0.32;;;;;;;27.69;100.00;101883.66;10444211;28;20053;-79
2023/07/09 21:34:57;;;;;;;0.32;0.10;;;;;;;27.66;100.00;101891.72;10449873;28;20045;-79
2023/07/09 21:39:59;;;;;;;0.10;0.10;;;;;;;27.81;100.00;101891.22;10436878;28;20041;-79
2023/07/09 21:45:00;;;;;;;0.17;0.10;;;;;;;28.44;100.00;101896.28;10440498;28;20041;-79
2023/07/09 21:50:09;;;;;;;0.10;0.00;;;;;;;28.48;100.00;101899.72;10435839;28;20055;-79
2023/07/09 21:55:21;;;;;;;0.07;0.07;;;;;;;28.60;100.00;101898.44;10448530;28;20045;-79
2023/07/09 22:00:25;;;;;;;0.00;0.00;;;;;;;28.50;100.00;101893.44;10456852;28;20044;-80
2023/07/09 22:05:28;;;;;;;0.10;0.08;;;;;;;28.57;100.00;101899.41;10450204;28;20524;-80
2023/07/09 22:10:30;;;;;;;0.00;0.00;;;;;;;28.47;100.00;101909.47;10437407;28;20488;-80
2023/07/09 22:15:39;;;;;;;0.00;0.00;;;;;;;28.53;100.00;101904.88;10457809;28;20569;-80
2023/07/09 22:20:41;;;;;;;0.35;0.10;;;;;;;28.10;100.00;101909.78;10456305;28;20055;-81
2023/07/09 22:25:43;;;;;;;0.10;0.10;;;;;;;27.88;100.00;101912.22;10471895;28;20041;-80
2023/07/09 22:30:46;;;;;;;0.10;0.10;;;;;;;28.16;100.00;101905.16;10456614;28;20056;-81
2023/07/09 22:35:48;;;;;;;0.08;0.08;;;;;;;27.87;100.00;101916.63;10455835;28;20040;-80
2023/07/09 22:40:50;;;;;;;0.00;0.00;;;;;;;28.09;100.00;101903.63;10436786;28;20049;-80
2023/07/09 22:45:51;;;;;;;0.10;0.10;;;;;;;27.65;100.00;101914.66;10455885;28;20048;-80
2023/07/09 22:50:54;;;;;;;0.00;0.00;;;;;;;27.95;100.00;101904.03;10455087;28;20407;-80
2023/07/09 22:55:56;;;;;;;0.03;0.03;;;;;;;27.48;100.00;101896.63;10436912;28;20073;-80
2023/07/09 23:01:10;;;;;;;0.40;0.30;;;;;;;27.44;100.00;101888.81;10456516;28;20124;-80
2023/07/09 23:06:31;;;;;;;0.10;0.10;;;;;;;27.55;100.00;101892.88;10469762;28;20048;-80
2023/07/09 23:11:35;;;;;;;0.22;0.10;;;;;;;27.20;100.00;101913.28;10434509;28;20140;-80